sensor_id;sensor_type;location;lat;lon;timestamp;pressure;altitude;pressure_sealevel;temperature;humidity
44988;BME280;35735;52.226;21.254;2023-05-22T00:04:19;100779.81;;;10.88;100.00
44988;BME280;35735;52.226;21.254;2023-05-22T00:09:19;100781.66;;;10.89;100.00
44988;BME280;35735;52.226;21.254;2023-05-22T00:14:20;100782.53;;;10.88;100.00
44988;BME280;35735;52.226;21.254;2023-05-22T00:19:21;100778.94;;;10.89;100.00
44988;BME280;35735;52.226;21.254;2023-05-22T00:24:21;100776.16;;;10.77;100.00
44988;BME280;35735;52.226;21.254;2023-05-22T00:29:22;100768.91;;;10.64;100.00
44988;BME280;35735;52.226;21.254;2023-05-22T00:34:22;100767.09;;;10.66;100.00
44988;BME280;35735;52.226;21.254;2023-05-22T00:39:23;100768.03;;;10.65;100.00
44988;BME280;35735;52.226;21.254;2023-05-22T00:44:23;100761.59;;;10.47;100.00
44988;BME280;35735;52.226;21.254;2023-05-22T00:49:24;100767.91;;;10.43;100.00
44988;BME280;35735;52.226;21.254;2023-05-22T00:54:24;100772.41;;;10.43;100.00
44988;BME280;35735;52.226;21.254;2023-05-22T00:59:25;100765.25;;;10.49;100.00
44988;BME280;35735;52.226;21.254;2023-05-22T01:04:27;100761.56;;;10.38;100.00
44988;BME280;35735;52.226;21.254;2023-05-22T01:09:28;100767.75;;;10.25;100.00
44988;BME280;35735;52.226;21.254;2023-05-22T01:20:42;100765.91;;;10.17;100.00
44988;BME280;35735;52.226;21.254;2023-05-22T01:25:55;100763.06;;;9.99;100.00
44988;BME280;35735;52.226;21.254;2023-05-22T01:31:08;100766.56;;;9.89;100.00
44988;BME280;35735;52.226;21.254;2023-05-22T01:36:13;100765.53;;;9.71;100.00
44988;BME280;35735;52.226;21.254;2023-05-22T01:41:15;100771.75;;;9.67;100.00
44988;BME280;35735;52.226;21.254;2023-05-22T01:46:16;100772.63;;;9.61;100.00
44988;BME280;35735;52.226;21.254;2023-05-22T01:51:22;100766.31;;;9.58;100.00
44988;BME280;35735;52.226;21.254;2023-05-22T01:56:54;100773.47;;;9.56;100.00
44988;BME280;35735;52.226;21.254;2023-05-22T02:02:02;100775.19;;;9.48;100.00
44988;BME280;35735;52.226;21.254;2023-05-22T02:07:05;100776.94;;;9.42;100.00
44988;BME280;35735;52.226;21.254;2023-05-22T02:12:06;100777.84;;;9.44;100.00
44988;BME280;35735;52.226;21.254;2023-05-22T02:17:07;100772.37;;;9.37;100.00
44988;BME280;35735;52.226;21.254;2023-05-22T02:22:08;100778.56;;;9.28;100.00
44988;BME280;35735;52.226;21.254;2023-05-22T02:27:08;100775.87;;;9.28;100.00
44988;BME280;35735;52.226;21.254;2023-05-22T02:32:09;100774.91;;;9.23;100.00
44988;BME280;35735;52.226;21.254;2023-05-22T02:37:09;100773.06;;;9.16;100.00
44988;BME280;35735;52.226;21.254;2023-05-22T02:42:10;100768.59;;;9.19;100.00
44988;BME280;35735;52.226;21.254;2023-05-22T02:47:11;100769.56;;;9.26;100.00
44988;BME280;35735;52.226;21.254;2023-05-22T02:52:11;100767.62;;;9.13;100.00
44988;BME280;35735;52.226;21.254;2023-05-22T02:57:12;100768.47;;;9.08;100.00
44988;BME280;35735;52.226;21.254;2023-05-22T03:02:12;100765.69;;;9.01;100.00
44988;BME280;35735;52.226;21.254;2023-05-22T03:07:13;100764.81;;;9.03;100.00
44988;BME280;35735;52.226;21.254;2023-05-22T03:12:14;100751.31;;;9.00;100.00
44988;BME280;35735;52.226;21.254;2023-05-22T03:17:14;100745.16;;;9.09;100.00
44988;BME280;35735;52.226;21.254;2023-05-22T03:22:15;100752.31;;;9.08;100.00
44988;BME280;35735;52.226;21.254;2023-05-22T03:27:15;100748.78;;;9.14;100.00
44988;BME280;35735;52.226;21.254;2023-05-22T03:32:16;100746.25;;;9.28;100.00
44988;BME280;35735;52.226;21.254;2023-05-22T03:37:16;100740.97;;;9.40;100.00
44988;BME280;35735;52.226;21.254;2023-05-22T03:42:17;100751.94;;;9.60;100.00
44988;BME280;35735;52.226;21.254;2023-05-22T03:47:17;100746.69;;;9.74;100.00
44988;BME280;35735;52.226;21.254;2023-05-22T03:52:18;100750.41;;;9.92;100.00
44988;BME280;35735;52.226;21.254;2023-05-22T03:57:18;100745.28;;;10.29;100.00
44988;BME280;35735;52.226;21.254;2023-05-22T04:02:19;100745.53;;;10.69;100.00
44988;BME280;35735;52.226;21.254;2023-05-22T04:07:20;100754.72;;;11.11;100.00
44988;BME280;35735;52.226;21.254;2023-05-22T04:12:20;100748.47;;;11.52;100.00
44988;BME280;35735;52.226;21.254;2023-05-22T04:17:21;100743.13;;;11.84;100.00
44988;BME280;35735;52.226;21.254;2023-05-22T04:22:21;100740.41;;;12.20;100.00
44988;BME280;35735;52.226;21.254;2023-05-22T04:27:22;100746.63;;;12.53;100.00
44988;BME280;35735;52.226;21.254;2023-05-22T04:32:22;100740.12;;;13.00;100.00
44988;BME280;35735;52.226;21.254;2023-05-22T04:37:23;100735.31;;;13.55;100.00
44988;BME280;35735;52.226;21.254;2023-05-22T04:42:23;100724.87;;;14.12;100.00
44988;BME280;35735;52.226;21.254;2023-05-22T04:47:24;100717.03;;;14.70;100.00
44988;BME280;35735;52.226;21.254;2023-05-22T04:52:25;100712.72;;;15.22;100.00
44988;BME280;35735;52.226;21.254;2023-05-22T04:57:26;100711.91;;;15.77;100.00
44988;BME280;35735;52.226;21.254;2023-05-22T05:02:26;100716.44;;;16.28;100.00
44988;BME280;35735;52.226;21.254;2023-05-22T05:07:27;100718.13;;;16.80;100.00
44988;BME280;35735;52.226;21.254;2023-05-22T05:12:27;100718.28;;;17.16;100.00
44988;BME280;35735;52.226;21.254;2023-05-22T05:17:28;100725.66;;;17.52;99.22
44988;BME280;35735;52.226;21.254;2023-05-22T05:22:28;100729.94;;;18.01;97.55
44988;BME280;35735;52.226;21.254;2023-05-22T05:27:29;100730.53;;;18.47;95.77
44988;BME280;35735;52.226;21.254;2023-05-22T05:32:29;100733.09;;;18.86;93.27
44988;BME280;35735;52.226;21.254;2023-05-22T05:37:30;100730.94;;;18.97;91.34
44988;BME280;35735;52.226;21.254;2023-05-22T05:42:30;100735.28;;;19.34;90.49
44988;BME280;35735;52.226;21.254;2023-05-22T05:47:31;100727.78;;;19.69;89.56
44988;BME280;35735;52.226;21.254;2023-05-22T05:52:32;100732.56;;;20.17;88.71
44988;BME280;35735;52.226;21.254;2023-05-22T05:57:32;100731.97;;;20.60;87.20
44988;BME280;35735;52.226;21.254;2023-05-22T06:02:33;100728.97;;;20.92;85.57
44988;BME280;35735;52.226;21.254;2023-05-22T06:07:33;100736.84;;;21.25;84.04
44988;BME280;35735;52.226;21.254;2023-05-22T06:12:34;100727.50;;;21.77;83.46
44988;BME280;35735;52.226;21.254;2023-05-22T06:17:34;100735.37;;;22.07;81.70
44988;BME280;35735;52.226;21.254;2023-05-22T06:22:35;100728.31;;;22.44;80.49
44988;BME280;35735;52.226;21.254;2023-05-22T06:27:36;100725.47;;;22.86;78.99
44988;BME280;35735;52.226;21.254;2023-05-22T06:32:36;100722.91;;;23.02;77.80
44988;BME280;35735;52.226;21.254;2023-05-22T06:37:37;100718.78;;;23.12;76.97
44988;BME280;35735;52.226;21.254;2023-05-22T06:42:38;100715.72;;;23.19;74.94
44988;BME280;35735;52.226;21.254;2023-05-22T06:47:38;100721.00;;;23.23;71.64
44988;BME280;35735;52.226;21.254;2023-05-22T06:52:39;100719.44;;;23.37;71.07
44988;BME280;35735;52.226;21.254;2023-05-22T06:57:39;100714.00;;;23.54;70.63
44988;BME280;35735;52.226;21.254;2023-05-22T07:02:40;100712.75;;;23.79;70.55
44988;BME280;35735;52.226;21.254;2023-05-22T07:07:40;100704.97;;;23.89;68.33
44988;BME280;35735;52.226;21.254;2023-05-22T07:12:41;100710.66;;;24.20;68.22
44988;BME280;35735;52.226;21.254;2023-05-22T07:17:42;100711.19;;;24.46;66.12
44988;BME280;35735;52.226;21.254;2023-05-22T07:22:42;100714.75;;;24.66;66.04
44988;BME280;35735;52.226;21.254;2023-05-22T07:27:43;100716.88;;;24.94;64.84
44988;BME280;35735;52.226;21.254;2023-05-22T07:32:44;100703.91;;;25.12;63.64
44988;BME280;35735;52.226;21.254;2023-05-22T07:37:44;100702.50;;;25.21;62.67
44988;BME280;35735;52.226;21.254;2023-05-22T07:42:45;100697.06;;;25.19;59.95
44988;BME280;35735;52.226;21.254;2023-05-22T07:47:46;100698.09;;;25.01;58.94
44988;BME280;35735;52.226;21.254;2023-05-22T07:52:46;100696.34;;;25.15;59.79
44988;BME280;35735;52.226;21.254;2023-05-22T07:57:47;100687.97;;;25.35;58.59
44988;BME280;35735;52.226;21.254;2023-05-22T08:02:47;100684.72;;;25.42;56.10
44988;BME280;35735;52.226;21.254;2023-05-22T08:07:48;100686.88;;;25.37;54.44
44988;BME280;35735;52.226;21.254;2023-05-22T08:12:48;100684.75;;;25.09;55.19
44988;BME280;35735;52.226;21.254;2023-05-22T08:17:49;100692.72;;;25.15;54.64
44988;BME280;35735;52.226;21.254;2023-05-22T08:22:49;100687.78;;;25.38;53.33
44988;BME280;35735;52.226;21.254;2023-05-22T08:27:50;100686.12;;;25.18;54.98
44988;BME280;35735;52.226;21.254;2023-05-22T08:32:50;100679.75;;;25.49;54.05
44988;BME280;35735;52.226;21.254;2023-05-22T08:37:51;100674.94;;;25.68;54.71
44988;BME280;35735;52.226;21.254;2023-05-22T08:42:51;100676.72;;;25.69;54.33
44988;BME280;35735;52.226;21.254;2023-05-22T08:47:54;100679.22;;;25.58;51.63
44988;BME280;35735;52.226;21.254;2023-05-22T08:52:55;100675.47;;;25.43;49.85
44988;BME280;35735;52.226;21.254;2023-05-22T08:57:56;100678.09;;;25.13;51.65
44988;BME280;35735;52.226;21.254;2023-05-22T09:02:56;100681.06;;;24.92;48.01
44988;BME280;35735;52.226;21.254;2023-05-22T09:07:57;100677.16;;;24.46;49.29
44988;BME280;35735;52.226;21.254;2023-05-22T09:13:02;100666.78;;;24.33;49.32
44988;BME280;35735;52.226;21.254;2023-05-22T09:18:07;100663.87;;;24.36;50.20
44988;BME280;35735;52.226;21.254;2023-05-22T09:23:14;100661.66;;;24.60;50.88
44988;BME280;35735;52.226;21.254;2023-05-22T09:28:15;100652.62;;;25.08;51.08
44988;BME280;35735;52.226;21.254;2023-05-22T09:33:19;100642.16;;;25.46;51.02
44988;BME280;35735;52.226;21.254;2023-05-22T09:38:22;100643.41;;;25.87;50.47
44988;BME280;35735;52.226;21.254;2023-05-22T09:43:26;100649.91;;;26.02;49.58
44988;BME280;35735;52.226;21.254;2023-05-22T09:48:27;100642.22;;;26.07;48.33
44988;BME280;35735;52.226;21.254;2023-05-22T09:53:28;100645.97;;;26.06;48.57
44988;BME280;35735;52.226;21.254;2023-05-22T09:58:30;100635.75;;;26.22;48.56
44988;BME280;35735;52.226;21.254;2023-05-22T10:03:32;100629.87;;;26.43;48.61
44988;BME280;35735;52.226;21.254;2023-05-22T10:08:39;100624.06;;;25.87;47.52
44988;BME280;35735;52.226;21.254;2023-05-22T10:13:42;100635.44;;;25.66;46.58
44988;BME280;35735;52.226;21.254;2023-05-22T10:18:44;100623.00;;;25.89;47.95
44988;BME280;35735;52.226;21.254;2023-05-22T10:23:47;100620.69;;;25.98;47.21
44988;BME280;35735;52.226;21.254;2023-05-22T10:28:56;100622.78;;;25.93;47.89
44988;BME280;35735;52.226;21.254;2023-05-22T10:34:04;100622.09;;;26.05;48.02
44988;BME280;35735;52.226;21.254;2023-05-22T10:39:22;100621.81;;;26.10;48.54
44988;BME280;35735;52.226;21.254;2023-05-22T10:44:34;100615.69;;;26.19;47.91
44988;BME280;35735;52.226;21.254;2023-05-22T10:49:35;100621.91;;;26.08;46.48
44988;BME280;35735;52.226;21.254;2023-05-22T10:54:45;100616.44;;;25.60;45.83
44988;BME280;35735;52.226;21.254;2023-05-22T10:59:48;100612.38;;;25.36;46.60
44988;BME280;35735;52.226;21.254;2023-05-22T11:04:49;100618.56;;;24.91;47.21
44988;BME280;35735;52.226;21.254;2023-05-22T11:09:58;100611.06;;;24.44;49.21
44988;BME280;35735;52.226;21.254;2023-05-22T11:15:06;100596.34;;;24.44;48.17
44988;BME280;35735;52.226;21.254;2023-05-22T11:20:20;100601.47;;;24.34;50.66
44988;BME280;35735;52.226;21.254;2023-05-22T11:25:21;100590.81;;;24.44;50.54
44988;BME280;35735;52.226;21.254;2023-05-22T11:30:26;100594.03;;;24.36;49.52
44988;BME280;35735;52.226;21.254;2023-05-22T11:35:27;100575.84;;;24.32;50.73
44988;BME280;35735;52.226;21.254;2023-05-22T11:40:28;100579.87;;;24.59;49.91
44988;BME280;35735;52.226;21.254;2023-05-22T11:45:28;100572.41;;;24.62;50.31
44988;BME280;35735;52.226;21.254;2023-05-22T11:50:29;100566.37;;;24.87;49.98
44988;BME280;35735;52.226;21.254;2023-05-22T11:55:32;100573.16;;;25.13;49.25
44988;BME280;35735;52.226;21.254;2023-05-22T12:00:32;100570.13;;;25.18;48.42
44988;BME280;35735;52.226;21.254;2023-05-22T12:05:33;100556.19;;;25.19;50.69
44988;BME280;35735;52.226;21.254;2023-05-22T12:10:33;100556.66;;;25.43;51.22
44988;BME280;35735;52.226;21.254;2023-05-22T12:15:34;100556.00;;;25.54;49.63
44988;BME280;35735;52.226;21.254;2023-05-22T12:20:34;100544.50;;;25.62;49.63
44988;BME280;35735;52.226;21.254;2023-05-22T12:25:35;100549.06;;;25.47;46.94
44988;BME280;35735;52.226;21.254;2023-05-22T12:30:39;100554.44;;;25.50;47.00
44988;BME280;35735;52.226;21.254;2023-05-22T12:35:40;100537.16;;;25.30;46.13
44988;BME280;35735;52.226;21.254;2023-05-22T12:40:41;100535.91;;;25.20;46.25
44988;BME280;35735;52.226;21.254;2023-05-22T12:45:41;100528.72;;;25.02;47.27
44988;BME280;35735;52.226;21.254;2023-05-22T12:50:43;100530.94;;;24.95;46.77
44988;BME280;35735;52.226;21.254;2023-05-22T12:55:43;100532.88;;;24.77;47.17
44988;BME280;35735;52.226;21.254;2023-05-22T13:00:44;100521.66;;;24.80;46.59
44988;BME280;35735;52.226;21.254;2023-05-22T13:05:45;100515.72;;;24.88;47.17
44988;BME280;35735;52.226;21.254;2023-05-22T13:10:45;100514.34;;;24.79;47.30
44988;BME280;35735;52.226;21.254;2023-05-22T13:15:46;100507.06;;;24.94;47.50
44988;BME280;35735;52.226;21.254;2023-05-22T13:20:46;100511.59;;;25.11;47.42
44988;BME280;35735;52.226;21.254;2023-05-22T13:25:47;100512.66;;;24.92;46.28
44988;BME280;35735;52.226;21.254;2023-05-22T13:30:47;100502.44;;;24.78;46.57
44988;BME280;35735;52.226;21.254;2023-05-22T13:35:48;100502.63;;;24.59;47.17
44988;BME280;35735;52.226;21.254;2023-05-22T13:40:49;100493.53;;;24.73;47.95
44988;BME280;35735;52.226;21.254;2023-05-22T13:45:49;100494.06;;;24.80;47.82
44988;BME280;35735;52.226;21.254;2023-05-22T13:50:50;100492.81;;;24.70;46.03
44988;BME280;35735;52.226;21.254;2023-05-22T13:55:50;100494.72;;;24.36;46.75
44988;BME280;35735;52.226;21.254;2023-05-22T14:00:51;100484.75;;;24.33;47.27
44988;BME280;35735;52.226;21.254;2023-05-22T14:05:51;100480.47;;;24.28;47.05
44988;BME280;35735;52.226;21.254;2023-05-22T14:10:52;100480.44;;;24.12;47.42
44988;BME280;35735;52.226;21.254;2023-05-22T14:15:53;100469.88;;;23.86;47.04
44988;BME280;35735;52.226;21.254;2023-05-22T14:20:53;100470.50;;;23.74;49.47
44988;BME280;35735;52.226;21.254;2023-05-22T14:25:54;100473.59;;;23.85;48.89
44988;BME280;35735;52.226;21.254;2023-05-22T14:30:54;100466.88;;;23.56;47.51
44988;BME280;35735;52.226;21.254;2023-05-22T14:35:55;100463.22;;;23.38;48.87
44988;BME280;35735;52.226;21.254;2023-05-22T14:40:55;100457.47;;;23.25;48.62
44988;BME280;35735;52.226;21.254;2023-05-22T14:45:56;100453.03;;;23.23;49.02
44988;BME280;35735;52.226;21.254;2023-05-22T14:50:57;100451.06;;;23.07;49.59
44988;BME280;35735;52.226;21.254;2023-05-22T14:55:57;100450.81;;;23.12;50.24
44988;BME280;35735;52.226;21.254;2023-05-22T15:00:58;100452.16;;;23.03;50.06
44988;BME280;35735;52.226;21.254;2023-05-22T15:05:58;100448.47;;;22.85;50.77
44988;BME280;35735;52.226;21.254;2023-05-22T15:10:59;100445.97;;;22.81;51.46
44988;BME280;35735;52.226;21.254;2023-05-22T15:15:59;100444.53;;;22.91;52.43
44988;BME280;35735;52.226;21.254;2023-05-22T15:21:00;100436.63;;;23.02;52.01
44988;BME280;35735;52.226;21.254;2023-05-22T15:26:00;100437.66;;;23.00;51.85
44988;BME280;35735;52.226;21.254;2023-05-22T15:31:01;100433.19;;;22.80;51.27
44988;BME280;35735;52.226;21.254;2023-05-22T15:36:01;100431.50;;;22.77;50.58
44988;BME280;35735;52.226;21.254;2023-05-22T15:41:02;100427.31;;;22.68;50.60
44988;BME280;35735;52.226;21.254;2023-05-22T15:46:03;100416.16;;;22.71;51.16
44988;BME280;35735;52.226;21.254;2023-05-22T15:51:04;100418.12;;;22.69;50.08
44988;BME280;35735;52.226;21.254;2023-05-22T15:56:05;100409.00;;;22.50;49.71
44988;BME280;35735;52.226;21.254;2023-05-22T16:01:06;100405.72;;;22.42;51.49
44988;BME280;35735;52.226;21.254;2023-05-22T16:06:06;100400.22;;;22.42;51.61
44988;BME280;35735;52.226;21.254;2023-05-22T16:11:07;100400.97;;;22.45;51.50
44988;BME280;35735;52.226;21.254;2023-05-22T16:16:07;100393.84;;;22.41;51.75
44988;BME280;35735;52.226;21.254;2023-05-22T16:21:08;100398.62;;;22.37;51.85
44988;BME280;35735;52.226;21.254;2023-05-22T16:26:09;100391.31;;;22.36;51.67
44988;BME280;35735;52.226;21.254;2023-05-22T16:31:09;100391.16;;;22.39;51.23
44988;BME280;35735;52.226;21.254;2023-05-22T16:36:10;100381.22;;;22.37;51.50
44988;BME280;35735;52.226;21.254;2023-05-22T16:41:10;100381.12;;;22.19;51.58
44988;BME280;35735;52.226;21.254;2023-05-22T16:46:11;100381.59;;;22.10;52.65
44988;BME280;35735;52.226;21.254;2023-05-22T16:51:11;100387.16;;;22.09;53.11
44988;BME280;35735;52.226;21.254;2023-05-22T16:56:12;100385.78;;;21.98;53.50
44988;BME280;35735;52.226;21.254;2023-05-22T17:01:12;100380.41;;;21.97;54.58
44988;BME280;35735;52.226;21.254;2023-05-22T17:06:13;100386.63;;;22.00;54.59
44988;BME280;35735;52.226;21.254;2023-05-22T17:11:13;100387.59;;;21.99;54.20
44988;BME280;35735;52.226;21.254;2023-05-22T17:16:14;100391.22;;;22.00;55.01
44988;BME280;35735;52.226;21.254;2023-05-22T17:21:15;100394.03;;;21.98;55.51
44988;BME280;35735;52.226;21.254;2023-05-22T17:26:15;100392.63;;;21.90;56.08
44988;BME280;35735;52.226;21.254;2023-05-22T17:31:16;100395.16;;;21.94;57.24
44988;BME280;35735;52.226;21.254;2023-05-22T17:36:16;100398.88;;;21.93;57.57
44988;BME280;35735;52.226;21.254;2023-05-22T17:41:17;100396.28;;;21.90;57.63
44988;BME280;35735;52.226;21.254;2023-05-22T17:46:18;100390.25;;;21.82;57.88
44988;BME280;35735;52.226;21.254;2023-05-22T17:51:18;100392.34;;;21.77;58.36
44988;BME280;35735;52.226;21.254;2023-05-22T17:56:19;100392.63;;;21.71;60.26
44988;BME280;35735;52.226;21.254;2023-05-22T18:01:19;100378.63;;;21.56;62.26
44988;BME280;35735;52.226;21.254;2023-05-22T18:06:20;100386.72;;;21.39;63.80
44988;BME280;35735;52.226;21.254;2023-05-22T18:11:20;100381.44;;;21.14;65.04
44988;BME280;35735;52.226;21.254;2023-05-22T18:16:21;100380.59;;;20.91;66.01
44988;BME280;35735;52.226;21.254;2023-05-22T18:21:21;100381.59;;;20.68;67.78
44988;BME280;35735;52.226;21.254;2023-05-22T18:26:22;100379.97;;;20.40;68.77
44988;BME280;35735;52.226;21.254;2023-05-22T18:31:23;100374.31;;;19.99;69.67
44988;BME280;35735;52.226;21.254;2023-05-22T18:36:23;100374.34;;;19.75;71.33
44988;BME280;35735;52.226;21.254;2023-05-22T18:41:24;100381.31;;;19.59;71.80
44988;BME280;35735;52.226;21.254;2023-05-22T18:46:24;100382.63;;;19.49;72.34
44988;BME280;35735;52.226;21.254;2023-05-22T18:51:25;100383.00;;;19.13;73.92
44988;BME280;35735;52.226;21.254;2023-05-22T18:56:25;100387.97;;;18.75;75.46
44988;BME280;35735;52.226;21.254;2023-05-22T19:01:26;100383.19;;;18.55;76.36
44988;BME280;35735;52.226;21.254;2023-05-22T19:06:27;100392.84;;;18.38;77.15
44988;BME280;35735;52.226;21.254;2023-05-22T19:11:27;100394.88;;;18.03;78.12
44988;BME280;35735;52.226;21.254;2023-05-22T19:16:28;100393.97;;;17.71;79.58
44988;BME280;35735;52.226;21.254;2023-05-22T19:21:29;100388.16;;;17.52;80.43
44988;BME280;35735;52.226;21.254;2023-05-22T19:26:29;100392.87;;;17.14;81.25
44988;BME280;35735;52.226;21.254;2023-05-22T19:31:30;100399.00;;;16.90;82.30
44988;BME280;35735;52.226;21.254;2023-05-22T19:36:30;100385.16;;;16.61;83.14
44988;BME280;35735;52.226;21.254;2023-05-22T19:41:31;100390.41;;;16.33;84.11
44988;BME280;35735;52.226;21.254;2023-05-22T19:46:31;100397.50;;;16.01;85.33
44988;BME280;35735;52.226;21.254;2023-05-22T19:51:32;100399.63;;;15.87;86.49
44988;BME280;35735;52.226;21.254;2023-05-22T19:56:32;100390.41;;;15.94;87.13
44988;BME280;35735;52.226;21.254;2023-05-22T20:01:33;100388.53;;;15.96;87.13
44988;BME280;35735;52.226;21.254;2023-05-22T20:06:34;100383.44;;;15.81;87.57
44988;BME280;35735;52.226;21.254;2023-05-22T20:11:34;100393.81;;;15.60;87.96
44988;BME280;35735;52.226;21.254;2023-05-22T20:16:35;100394.34;;;15.35;88.75
44988;BME280;35735;52.226;21.254;2023-05-22T20:21:35;100384.81;;;15.13;89.45
44988;BME280;35735;52.226;21.254;2023-05-22T20:26:36;100383.44;;;14.90;90.37
44988;BME280;35735;52.226;21.254;2023-05-22T20:31:37;100372.91;;;14.72;91.40
44988;BME280;35735;52.226;21.254;2023-05-22T20:36:38;100376.72;;;14.58;92.11
44988;BME280;35735;52.226;21.254;2023-05-22T20:41:39;100376.13;;;14.39;92.59
44988;BME280;35735;52.226;21.254;2023-05-22T20:46:39;100371.81;;;14.24;93.78
44988;BME280;35735;52.226;21.254;2023-05-22T20:51:40;100371.09;;;14.13;94.04
44988;BME280;35735;52.226;21.254;2023-05-22T20:56:40;100370.50;;;13.93;94.49
44988;BME280;35735;52.226;21.254;2023-05-22T21:01:41;100372.47;;;13.81;95.12
44988;BME280;35735;52.226;21.254;2023-05-22T21:06:42;100369.88;;;13.74;95.83
44988;BME280;35735;52.226;21.254;2023-05-22T21:11:42;100374.38;;;13.73;96.02
44988;BME280;35735;52.226;21.254;2023-05-22T21:16:43;100365.69;;;13.46;96.74
44988;BME280;35735;52.226;21.254;2023-05-22T21:21:43;100378.56;;;13.26;97.35
44988;BME280;35735;52.226;21.254;2023-05-22T21:26:44;100372.37;;;13.14;97.88
44988;BME280;35735;52.226;21.254;2023-05-22T21:31:44;100373.38;;;13.07;98.72
44988;BME280;35735;52.226;21.254;2023-05-22T21:36:45;100366.94;;;13.16;98.89
44988;BME280;35735;52.226;21.254;2023-05-22T21:41:46;100362.53;;;13.07;98.84
44988;BME280;35735;52.226;21.254;2023-05-22T21:46:46;100357.34;;;12.84;99.17
44988;BME280;35735;52.226;21.254;2023-05-22T21:51:47;100352.97;;;12.71;99.85
44988;BME280;35735;52.226;21.254;2023-05-22T21:56:47;100354.94;;;12.55;100.00
44988;BME280;35735;52.226;21.254;2023-05-22T22:01:48;100360.47;;;12.41;100.00
44988;BME280;35735;52.226;21.254;2023-05-22T22:06:48;100367.72;;;12.34;100.00
44988;BME280;35735;52.226;21.254;2023-05-22T22:11:49;100359.66;;;12.31;100.00
44988;BME280;35735;52.226;21.254;2023-05-22T22:16:50;100357.88;;;12.29;100.00
44988;BME280;35735;52.226;21.254;2023-05-22T22:21:50;100367.78;;;12.30;100.00
44988;BME280;35735;52.226;21.254;2023-05-22T22:26:51;100354.28;;;12.27;100.00
44988;BME280;35735;52.226;21.254;2023-05-22T22:31:51;100358.91;;;12.11;100.00
44988;BME280;35735;52.226;21.254;2023-05-22T22:36:52;100347.22;;;12.02;100.00
44988;BME280;35735;52.226;21.254;2023-05-22T22:41:52;100350.03;;;11.85;100.00
44988;BME280;35735;52.226;21.254;2023-05-22T22:46:53;100340.97;;;11.94;100.00
44988;BME280;35735;52.226;21.254;2023-05-22T22:51:54;100351.78;;;11.97;100.00
44988;BME280;35735;52.226;21.254;2023-05-22T22:56:54;100349.16;;;11.91;100.00
44988;BME280;35735;52.226;21.254;2023-05-22T23:01:55;100350.06;;;11.79;100.00
44988;BME280;35735;52.226;21.254;2023-05-22T23:06:55;100351.97;;;11.62;100.00
44988;BME280;35735;52.226;21.254;2023-05-22T23:11:56;100338.53;;;11.48;100.00
44988;BME280;35735;52.226;21.254;2023-05-22T23:16:56;100339.47;;;11.39;100.00
44988;BME280;35735;52.226;21.254;2023-05-22T23:21:57;100328.69;;;11.36;100.00
44988;BME280;35735;52.226;21.254;2023-05-22T23:26:57;100316.16;;;11.20;100.00
44988;BME280;35735;52.226;21.254;2023-05-22T23:31:58;100318.87;;;11.12;100.00
44988;BME280;35735;52.226;21.254;2023-05-22T23:36:59;100321.63;;;11.04;100.00
44988;BME280;35735;52.226;21.254;2023-05-22T23:41:59;100315.31;;;11.01;100.00
44988;BME280;35735;52.226;21.254;2023-05-22T23:47:00;100310.75;;;11.13;100.00
44988;BME280;35735;52.226;21.254;2023-05-22T23:52:00;100311.72;;;11.02;100.00
44988;BME280;35735;52.226;21.254;2023-05-22T23:57:01;100311.75;;;10.89;100.00
